KBFI/BFI METAR and TAF weather

Enter ICAO airport designator
Station Type Date Time Source
KBFI METAR 2024/06/14 21:53 UTC NOAA

KBFI 142153Z 23007G16KT 170V260 10SM OVC060 17/08 A3013 RMK AO2 RAE2058 SLP203 P0000 T01720078


Station Type Date Time Source
KBFI Decoded METAR 2024/06/14 21:53 UTC NOAA

SEATTLE BOEING FIELD, WA, United States (KBFI) 47-33N 122-19W 4M
Jun 14, 2024 - 05:53 PM EDT / 2024.06.14 2153 UTC
Wind: from the SW (230 degrees) at 8 MPH (7 KT) gusting to 18 MPH (16 KT) (direction variable):0
Visibility: 10 mile(s):0
Sky conditions: overcast
Precipitation last hour: A trace
Temperature: 63.0 F (17.2 C)
Dew Point: 46.0 F (7.8 C)
Relative Humidity: 53%
Pressure (altimeter): 30.13 in. Hg (1020 hPa)
ob: KBFI 142153Z 23007G16KT 170V260 10SM OVC060 17/08 A3013 RMK AO2 RAE2058 SLP203 P0000 T01720078
cycle: 22

Station Type Date Time Source
KBFI TAF 2024/06/14 18:33 UTC NOAA